createdAt,value
2018-05-29T00:01:26.402Z,101674.01
2018-05-29T00:03:54.758Z,101677.32
2018-05-29T00:06:23.198Z,101675.86
2018-05-29T00:08:52.277Z,101683.14
2018-05-29T00:11:20.744Z,101677.16
2018-05-29T00:13:50.097Z,101673.44
2018-05-29T00:16:18.866Z,101661.02
2018-05-29T00:18:47.214Z,101664.05
2018-05-29T00:21:15.547Z,101658.66
2018-05-29T00:23:44.783Z,101664.25
2018-05-29T00:26:13.250Z,101656.48
2018-05-29T00:28:41.558Z,101654.06
2018-05-29T00:31:10.973Z,101650.86
2018-05-29T00:33:39.296Z,101650.41
2018-05-29T00:36:07.650Z,101644.47
2018-05-29T00:38:36.027Z,101645.75
2018-05-29T00:41:04.445Z,101640.22
2018-05-29T00:43:32.784Z,101631.66
2018-05-29T00:46:01.151Z,101630.66
2018-05-29T00:48:29.466Z,101625.17
2018-05-29T00:50:57.804Z,101639.55
2018-05-29T00:53:26.478Z,101626.41
2018-05-29T00:55:54.807Z,101627.70
2018-05-29T00:58:23.129Z,101623.64
2018-05-29T01:00:51.533Z,101631.84
2018-05-29T01:03:19.874Z,101631.77
2018-05-29T01:05:48.249Z,101615.06
2018-05-29T01:08:17.159Z,101626.72
2018-05-29T01:10:45.635Z,101616.70
2018-05-29T01:13:14.000Z,101617.64
2018-05-29T01:15:43.141Z,101614.08
2018-05-29T01:18:11.473Z,101616.58
2018-05-29T01:20:39.777Z,101620.05
2018-05-29T01:23:08.385Z,101609.61
2018-05-29T01:25:36.717Z,101620.41
2018-05-29T01:28:05.047Z,101610.23
2018-05-29T01:30:33.576Z,101600.22
2018-05-29T01:33:01.959Z,101599.86
2018-05-29T01:35:30.363Z,101591.27
2018-05-29T01:37:58.697Z,101591.34
2018-05-29T01:40:27.021Z,101593.26
2018-05-29T01:42:55.396Z,101598.81
2018-05-29T01:45:23.749Z,101591.77
2018-05-29T01:47:52.098Z,101592.98
2018-05-29T01:50:20.407Z,101603.05
2018-05-29T01:52:49.106Z,101598.66
2018-05-29T01:55:17.460Z,101598.73
2018-05-29T01:57:45.819Z,101600.38
2018-05-29T02:00:14.476Z,101598.73
2018-05-29T02:02:42.817Z,101602.66
2018-05-29T02:05:11.113Z,101604.56
2018-05-29T02:07:39.550Z,101600.78
2018-05-29T02:10:07.914Z,101600.08
2018-05-29T02:12:36.225Z,101599.37
2018-05-29T02:15:04.704Z,101601.20
2018-05-29T02:17:33.028Z,101617.57
2018-05-29T02:20:01.341Z,101620.18
2018-05-29T02:22:29.707Z,101630.84
2018-05-29T02:24:58.010Z,101639.95
2018-05-29T02:27:26.342Z,101637.40
2018-05-29T02:29:54.741Z,101637.13
2018-05-29T02:32:23.044Z,101628.31
2018-05-29T02:34:51.541Z,101632.01
2018-05-29T02:37:19.910Z,101638.41
2018-05-29T02:39:48.261Z,101635.35
2018-05-29T02:42:16.610Z,101638.02
2018-05-29T02:44:44.963Z,101632.02
2018-05-29T02:47:13.314Z,101642.46
2018-05-29T02:49:41.896Z,101647.67
2018-05-29T02:52:10.236Z,101654.84
2018-05-29T02:54:38.550Z,101648.29
2018-05-29T02:57:06.910Z,101640.86
2018-05-29T02:59:36.209Z,101648.23
2018-05-29T03:02:04.567Z,101648.59
2018-05-29T03:04:32.955Z,101642.89
2018-05-29T03:07:02.089Z,101638.64
2018-05-29T03:09:30.417Z,101637.27
2018-05-29T03:11:58.733Z,101645.53
2018-05-29T03:14:27.277Z,101642.98
2018-05-29T03:16:55.598Z,101643.14
2018-05-29T03:19:23.972Z,101648.27
2018-05-29T03:21:52.649Z,101641.80
2018-05-29T03:24:20.988Z,101634.92
2018-05-29T03:26:49.318Z,101633.72
2018-05-29T03:29:18.293Z,101636.69
2018-05-29T03:31:46.637Z,101628.62
2018-05-29T03:34:15.181Z,101633.42
2018-05-29T03:36:44.163Z,101638.59
2018-05-29T03:39:12.540Z,101638.62
2018-05-29T03:41:40.853Z,101632.08
2018-05-29T03:44:09.193Z,101629.59
2018-05-29T03:46:37.504Z,101622.48
2018-05-29T03:49:05.839Z,101630.02
2018-05-29T03:51:34.985Z,101634.96
2018-05-29T03:54:03.310Z,101642.41
2018-05-29T03:56:31.641Z,101640.13
2018-05-29T03:59:00.379Z,101642.41
2018-05-29T04:01:28.693Z,101634.68
2018-05-29T04:03:57.031Z,101640.27
2018-05-29T04:06:25.427Z,101639.84
2018-05-29T04:08:53.762Z,101638.20
2018-05-29T04:11:22.168Z,101638.34
2018-05-29T04:13:50.617Z,101633.47
2018-05-29T04:16:18.945Z,101640.63
2018-05-29T04:18:47.378Z,101633.29
2018-05-29T04:21:15.893Z,101640.77
2018-05-29T04:23:44.205Z,101638.73
2018-05-29T04:26:12.606Z,101648.34
2018-05-29T04:28:40.949Z,101647.20
2018-05-29T04:31:09.297Z,101647.74
2018-05-29T04:33:37.633Z,101649.52
2018-05-29T04:36:06.140Z,101650.16
2018-05-29T04:38:34.466Z,101640.20
2018-05-29T04:41:02.790Z,101643.47
2018-05-29T04:43:32.221Z,101639.34
2018-05-29T04:46:00.639Z,101640.63
2018-05-29T04:48:28.964Z,101636.70
2018-05-29T04:50:58.221Z,101640.05
2018-05-29T04:53:26.549Z,101643.04
2018-05-29T04:55:54.880Z,101639.05
2018-05-29T04:58:23.725Z,101635.07
2018-05-29T05:00:52.096Z,101635.07
2018-05-29T05:03:20.456Z,101634.17
2018-05-29T05:05:49.681Z,101637.73
2018-05-29T05:08:18.107Z,101637.11
2018-05-29T05:10:46.499Z,101636.48
2018-05-29T05:13:15.096Z,101633.16
2018-05-29T05:15:43.442Z,101639.84
2018-05-29T05:18:11.747Z,101632.22
2018-05-29T05:20:40.872Z,101632.31
2018-05-29T05:23:09.206Z,101625.97
2018-05-29T05:25:37.549Z,101623.89
2018-05-29T05:28:06.423Z,101626.49
2018-05-29T05:30:34.755Z,101629.95
2018-05-29T05:33:03.062Z,101627.77
2018-05-29T05:35:31.776Z,101628.82
2018-05-29T05:38:00.277Z,101630.82
2018-05-29T05:40:28.590Z,101624.50
2018-05-29T05:42:56.932Z,101622.92
2018-05-29T05:45:25.262Z,101624.50
2018-05-29T05:47:53.609Z,101625.58
2018-05-29T05:50:22.009Z,101617.14
2018-05-29T05:52:50.447Z,101628.20
2018-05-29T05:55:18.746Z,101624.28
2018-05-29T05:57:47.312Z,101632.47
2018-05-29T06:00:15.789Z,101625.34
2018-05-29T06:02:44.194Z,101622.11
2018-05-29T06:05:12.615Z,101625.91
2018-05-29T06:07:40.877Z,101624.03
2018-05-29T06:10:09.203Z,101623.13
2018-05-29T06:12:38.017Z,101627.55
2018-05-29T06:15:06.432Z,101625.06
2018-05-29T06:17:34.748Z,101635.19
2018-05-29T06:20:03.913Z,101634.59
2018-05-29T06:22:32.237Z,101630.16
2018-05-29T06:25:00.570Z,101641.70
2018-05-29T06:27:28.909Z,101632.45
2018-05-29T06:29:57.247Z,101632.14
2018-05-29T06:32:25.547Z,101625.13
2018-05-29T06:34:54.054Z,101635.45
2018-05-29T06:37:22.386Z,101633.66
2018-05-29T06:39:50.757Z,101642.19
2018-05-29T06:42:19.388Z,101640.53
2018-05-29T06:44:47.804Z,101637.97
2018-05-29T06:47:16.076Z,101630.14
2018-05-29T06:49:44.545Z,101631.15
2018-05-29T06:52:13.092Z,101632.39
2018-05-29T06:54:41.379Z,101628.48
2018-05-29T06:57:09.720Z,101624.36
2018-05-29T06:59:38.027Z,101627.63
2018-05-29T07:02:06.352Z,101640.64
2018-05-29T07:04:34.684Z,101631.95
2018-05-29T07:07:03.012Z,101626.94
2018-05-29T07:09:31.311Z,101631.73
2018-05-29T07:12:00.921Z,101633.63
2018-05-29T07:14:29.259Z,101627.56
2018-05-29T07:16:57.561Z,101624.99
2018-05-29T07:19:27.692Z,101637.81
2018-05-29T07:21:56.022Z,101640.58
2018-05-29T07:24:24.358Z,101638.91
2018-05-29T07:26:53.873Z,101634.03
2018-05-29T07:29:22.230Z,101638.14
2018-05-29T07:31:50.590Z,101634.50
2018-05-29T07:34:19.109Z,101629.72
2018-05-29T07:36:47.498Z,101626.87
2018-05-29T07:39:15.954Z,101619.39
2018-05-29T07:41:45.427Z,101623.87
2018-05-29T07:44:13.953Z,101611.21
2018-05-29T07:46:42.483Z,101620.09
2018-05-29T07:49:10.957Z,101612.28
2018-05-29T07:51:39.363Z,101608.02
2018-05-29T07:54:07.683Z,101599.56
2018-05-29T07:56:36.336Z,101605.75
2018-05-29T07:59:04.675Z,101603.45
2018-05-29T08:01:33.094Z,101596.80
2018-05-29T08:04:02.309Z,101596.84
2018-05-29T08:06:30.658Z,101583.66
2018-05-29T08:08:58.962Z,101586.66
2018-05-29T08:11:27.387Z,101577.22
2018-05-29T08:13:55.709Z,101579.12
2018-05-29T08:16:24.022Z,101572.50
2018-05-29T08:18:52.370Z,101571.66
2018-05-29T08:21:20.724Z,101563.95
2018-05-29T08:23:49.043Z,101567.12
2018-05-29T08:26:17.394Z,101567.02
2018-05-29T08:28:45.708Z,101566.00
2018-05-29T08:31:14.058Z,101565.39
2018-05-29T08:33:42.400Z,101560.05
2018-05-29T08:36:10.712Z,101561.49
2018-05-29T08:38:39.092Z,101570.93
2018-05-29T08:41:07.477Z,101564.11
2018-05-29T08:43:35.776Z,101561.19
2018-05-29T08:46:04.167Z,101564.63
2018-05-29T08:48:32.808Z,101569.91
2018-05-29T08:51:01.121Z,101566.19
2018-05-29T08:53:29.441Z,101562.95
2018-05-29T08:55:58.233Z,101557.05
2018-05-29T08:58:26.590Z,101556.03
2018-05-29T09:00:54.934Z,101551.70
2018-05-29T09:03:24.758Z,101558.78
2018-05-29T09:05:53.120Z,101561.74
2018-05-29T09:08:21.484Z,101562.98
2018-05-29T09:10:49.870Z,101556.55
2018-05-29T09:13:18.240Z,101549.80
2018-05-29T09:15:46.610Z,101556.48
2018-05-29T09:18:15.965Z,101551.94
2018-05-29T09:20:44.298Z,101553.33
2018-05-29T09:23:13.549Z,101540.38
2018-05-29T09:25:41.897Z,101535.87
2018-05-29T09:28:10.197Z,101537.98
2018-05-29T09:30:38.522Z,101539.16
2018-05-29T09:33:07.261Z,101533.45
2018-05-29T09:35:35.612Z,101531.16
2018-05-29T09:38:03.889Z,101526.47
2018-05-29T09:40:32.784Z,101526.05
2018-05-29T09:43:01.100Z,101523.16
2018-05-29T09:45:29.534Z,101521.03
2018-05-29T09:47:57.851Z,101519.99
2018-05-29T09:50:26.164Z,101518.66
2018-05-29T09:52:54.541Z,101518.92
2018-05-29T09:55:22.906Z,101514.69
2018-05-29T09:57:51.254Z,101512.84
2018-05-29T10:00:25.625Z,101502.33
2018-05-29T10:02:53.953Z,101496.69
2018-05-29T10:05:22.326Z,101498.63
2018-05-29T10:07:50.868Z,101497.59
2018-05-29T10:10:20.088Z,101485.39
2018-05-29T10:12:48.456Z,101493.83
2018-05-29T10:15:17.511Z,101485.88
2018-05-29T10:17:45.859Z,101491.02
2018-05-29T10:20:14.234Z,101486.82
2018-05-29T10:22:43.300Z,101490.63
2018-05-29T10:25:11.616Z,101491.09
2018-05-29T10:27:39.948Z,101487.23
2018-05-29T10:30:09.289Z,101486.39
2018-05-29T10:32:37.587Z,101477.56
2018-05-29T10:35:05.930Z,101480.66
2018-05-29T10:37:34.318Z,101477.94
2018-05-29T10:40:02.644Z,101477.48
2018-05-29T10:42:30.952Z,101477.52
2018-05-29T10:44:59.295Z,101479.34
2018-05-29T10:47:27.601Z,101478.80
2018-05-29T10:49:55.969Z,101478.97
2018-05-29T10:52:24.595Z,101478.38
2018-05-29T10:54:52.885Z,101473.45
2018-05-29T10:57:21.230Z,101468.53
2018-05-29T10:59:49.574Z,101468.70
2018-05-29T11:02:17.923Z,101472.34
2018-05-29T11:04:46.306Z,101468.89
2018-05-29T11:07:14.765Z,101457.72
2018-05-29T11:09:43.131Z,101450.67
2018-05-29T11:12:11.459Z,101456.08
2018-05-29T11:14:39.813Z,101453.59
2018-05-29T11:17:08.173Z,101437.77
2018-05-29T11:19:36.499Z,101442.20
2018-05-29T11:22:05.469Z,101442.42
2018-05-29T11:24:33.796Z,101439.34
2018-05-29T11:27:02.119Z,101440.53
2018-05-29T11:29:30.461Z,101432.96
2018-05-29T11:31:58.801Z,101431.67
2018-05-29T11:34:27.105Z,101436.52
2018-05-29T11:36:55.465Z,101428.09
2018-05-29T11:39:23.832Z,101425.51
2018-05-29T11:41:52.245Z,101424.05
2018-05-29T11:44:21.413Z,101425.02
2018-05-29T11:46:49.733Z,101405.85
2018-05-29T11:49:18.068Z,101409.72
2018-05-29T11:51:46.501Z,101407.45
2018-05-29T11:54:14.936Z,101403.87
2018-05-29T11:56:43.301Z,101398.90
2018-05-29T11:59:12.527Z,101390.78
2018-05-29T12:01:40.922Z,101390.29
2018-05-29T12:04:09.238Z,101387.07
2018-05-29T12:06:39.100Z,101387.09
2018-05-29T12:09:07.429Z,101387.17
2018-05-29T12:11:35.730Z,101379.42
2018-05-29T12:14:04.060Z,101383.41
2018-05-29T12:16:32.357Z,101381.67
2018-05-29T12:19:00.671Z,101380.61
2018-05-29T12:21:29.303Z,101375.83
2018-05-29T12:23:57.622Z,101372.99
2018-05-29T12:26:25.958Z,101372.42
2018-05-29T12:28:54.497Z,101366.02
2018-05-29T12:31:22.897Z,101360.50
2018-05-29T12:33:51.312Z,101360.64
2018-05-29T12:36:19.713Z,101365.69
2018-05-29T12:38:48.042Z,101364.63
2018-05-29T12:41:16.396Z,101363.39
2018-05-29T12:43:44.761Z,101366.80
2018-05-29T12:46:13.250Z,101361.55
2018-05-29T12:48:41.465Z,101352.45
2018-05-29T12:51:09.805Z,101354.25
2018-05-29T12:53:38.126Z,101349.00
2018-05-29T12:56:06.444Z,101349.75
2018-05-29T12:58:35.305Z,101349.88
2018-05-29T13:01:03.631Z,101340.44
2018-05-29T13:03:31.957Z,101343.20
2018-05-29T13:06:00.370Z,101346.38
2018-05-29T13:08:28.742Z,101345.50
2018-05-29T13:10:57.059Z,101337.70
2018-05-29T13:13:25.441Z,101338.59
2018-05-29T13:15:53.794Z,101339.56
2018-05-29T13:18:22.119Z,101328.87
2018-05-29T13:20:51.028Z,101332.61
2018-05-29T13:23:19.357Z,101326.13
2018-05-29T13:25:47.847Z,101326.27
2018-05-29T13:28:16.623Z,101332.13
2018-05-29T13:30:45.058Z,101327.67
2018-05-29T13:33:13.382Z,101329.80
2018-05-29T13:35:41.727Z,101322.74
2018-05-29T13:38:10.027Z,101320.17
2018-05-29T13:40:38.349Z,101313.63
2018-05-29T13:43:07.174Z,101313.62
2018-05-29T13:45:35.659Z,101315.05
2018-05-29T13:48:03.977Z,101319.73
2018-05-29T13:50:32.314Z,101326.99
2018-05-29T13:53:00.610Z,101309.69
2018-05-29T13:55:29.635Z,101317.57
2018-05-29T13:57:58.065Z,101314.15
2018-05-29T14:00:26.373Z,101315.92
2018-05-29T14:02:54.693Z,101317.03
2018-05-29T14:05:23.301Z,101320.92
2018-05-29T14:07:51.698Z,101321.34
2018-05-29T14:10:20.017Z,101318.58
2018-05-29T14:12:48.362Z,101305.06
2018-05-29T14:15:18.311Z,101302.28
2018-05-29T14:17:46.894Z,101305.27
2018-05-29T14:20:16.281Z,101305.30
2018-05-29T14:22:44.665Z,101300.88
2018-05-29T14:25:13.011Z,101297.87
2018-05-29T14:27:41.383Z,101299.30
2018-05-29T14:30:09.698Z,101294.46
2018-05-29T14:32:38.982Z,101294.40
2018-05-29T14:35:07.331Z,101284.30
2018-05-29T14:37:35.631Z,101289.42
2018-05-29T14:40:03.947Z,101287.95
2018-05-29T14:42:32.348Z,101286.59
2018-05-29T14:45:00.643Z,101284.05
2018-05-29T14:47:28.938Z,101276.91
2018-05-29T14:49:57.285Z,101269.77
2018-05-29T14:52:25.627Z,101271.70
2018-05-29T14:54:53.910Z,101260.27
2018-05-29T14:57:22.864Z,101257.31
2018-05-29T14:59:51.174Z,101257.18
2018-05-29T15:02:19.529Z,101251.93
2018-05-29T15:04:47.978Z,101257.16
2018-05-29T15:07:16.306Z,101256.24
2018-05-29T15:09:44.672Z,101253.49
2018-05-29T15:12:14.528Z,101249.42
2018-05-29T15:14:43.702Z,101252.56
2018-05-29T15:17:12.028Z,101243.87
2018-05-29T15:19:41.447Z,101244.80
2018-05-29T15:22:09.782Z,101240.09
2018-05-29T15:24:38.137Z,101240.59
2018-05-29T15:27:06.649Z,101242.97
2018-05-29T15:29:34.956Z,101246.56
2018-05-29T15:32:03.265Z,101237.05
2018-05-29T15:34:31.599Z,101235.70
2018-05-29T15:36:59.897Z,101227.71
2018-05-29T15:39:28.206Z,101238.42
2018-05-29T15:41:56.562Z,101235.33
2018-05-29T15:44:24.884Z,101231.84
2018-05-29T15:46:53.187Z,101230.14
2018-05-29T15:49:21.567Z,101230.92
2018-05-29T15:51:49.901Z,101228.68
2018-05-29T15:54:18.312Z,101235.53
2018-05-29T15:56:46.830Z,101228.14
2018-05-29T15:59:15.209Z,101226.11
2018-05-29T16:01:43.698Z,101228.45
2018-05-29T16:04:12.683Z,101227.16
2018-05-29T16:06:40.998Z,101221.03
2018-05-29T16:09:09.296Z,101229.66
2018-05-29T16:11:38.050Z,101223.49
2018-05-29T16:14:06.990Z,101221.69
2018-05-29T16:16:35.289Z,101212.08
2018-05-29T16:19:03.768Z,101213.75
2018-05-29T16:21:34.444Z,101203.23
2018-05-29T16:24:02.906Z,101208.30
2018-05-29T16:26:31.329Z,101206.23
2018-05-29T16:28:59.680Z,101200.49
2018-05-29T16:31:28.038Z,101209.05
2018-05-29T16:33:56.396Z,101199.87
2018-05-29T16:36:24.716Z,101197.16
2018-05-29T16:38:53.037Z,101192.19
2018-05-29T16:41:22.248Z,101203.80
2018-05-29T16:43:50.682Z,101204.33
2018-05-29T16:46:19.021Z,101204.74
2018-05-29T16:48:47.401Z,101209.17
2018-05-29T16:51:15.777Z,101200.07
2018-05-29T16:53:44.506Z,101202.89
2018-05-29T16:56:14.167Z,101205.28
2018-05-29T16:58:42.472Z,101214.16
2018-05-29T17:01:10.921Z,101203.13
2018-05-29T17:03:39.258Z,101199.79
2018-05-29T17:06:07.607Z,101198.94
2018-05-29T17:08:35.953Z,101189.64
2018-05-29T17:11:04.321Z,101192.59
2018-05-29T17:13:33.622Z,101193.88
2018-05-29T17:16:02.468Z,101190.78
2018-05-29T17:18:30.868Z,101200.80
2018-05-29T17:20:59.172Z,101204.14
2018-05-29T17:23:27.517Z,101192.56
2018-05-29T17:25:55.878Z,101201.12
2018-05-29T17:28:24.238Z,101197.31
2018-05-29T17:30:52.601Z,101197.64
2018-05-29T17:33:20.968Z,101202.29
2018-05-29T17:35:49.323Z,101203.86
2018-05-29T17:38:17.706Z,101199.62
2018-05-29T17:40:46.085Z,101213.16
2018-05-29T17:43:14.423Z,101216.27
2018-05-29T17:45:42.759Z,101208.82
2018-05-29T17:48:11.167Z,101206.22
2018-05-29T17:50:39.512Z,101208.41
2018-05-29T17:53:07.821Z,101212.06
2018-05-29T17:55:36.223Z,101210.16
2018-05-29T17:58:04.541Z,101211.14
2018-05-29T18:00:32.842Z,101208.72
2018-05-29T18:03:01.265Z,101203.55
2018-05-29T18:05:29.611Z,101211.06
2018-05-29T18:07:57.958Z,101210.13
2018-05-29T18:10:26.289Z,101213.57
2018-05-29T18:12:54.619Z,101207.86
2018-05-29T18:15:22.977Z,101203.91
2018-05-29T18:17:51.458Z,101208.88
2018-05-29T18:20:19.780Z,101205.84
2018-05-29T18:22:48.256Z,101206.14
2018-05-29T18:25:16.735Z,101206.23
2018-05-29T18:27:45.247Z,101203.06
2018-05-29T18:30:13.639Z,101205.98
2018-05-29T18:32:42.075Z,101211.81
2018-05-29T18:35:10.366Z,101200.48
2018-05-29T18:37:38.685Z,101204.94
2018-05-29T18:40:07.823Z,101207.63
2018-05-29T18:42:36.140Z,101218.62
2018-05-29T18:45:04.506Z,101219.14
2018-05-29T18:47:33.724Z,101212.55
2018-05-29T18:50:02.058Z,101218.72
2018-05-29T18:52:30.380Z,101222.92
2018-05-29T18:54:59.189Z,101229.88
2018-05-29T18:57:27.486Z,101230.11
2018-05-29T18:59:55.790Z,101230.03
2018-05-29T19:02:24.965Z,101226.33
2018-05-29T19:04:53.293Z,101232.64
2018-05-29T19:07:21.888Z,101228.41
2018-05-29T19:09:50.872Z,101235.45
2018-05-29T19:12:19.508Z,101232.64
2018-05-29T19:14:48.550Z,101237.52
2018-05-29T19:17:17.700Z,101243.23
2018-05-29T19:19:46.094Z,101237.23
2018-05-29T19:22:14.469Z,101232.57
2018-05-29T19:24:42.953Z,101233.00
2018-05-29T19:27:11.269Z,101230.55
2018-05-29T19:29:40.538Z,101229.19
2018-05-29T19:32:08.890Z,101236.19
2018-05-29T19:34:37.199Z,101242.30
2018-05-29T19:37:05.522Z,101244.84
2018-05-29T19:39:33.850Z,101247.53
2018-05-29T19:42:02.199Z,101244.23
2018-05-29T19:44:30.843Z,101242.63
2018-05-29T19:46:59.185Z,101244.32
2018-05-29T19:49:27.522Z,101239.20
2018-05-29T19:51:55.880Z,101241.08
2018-05-29T19:54:24.307Z,101237.08
2018-05-29T19:56:52.891Z,101236.75
2018-05-29T19:59:21.237Z,101234.81
2018-05-29T20:01:49.839Z,101239.52
2018-05-29T20:04:18.183Z,101244.05
2018-05-29T20:06:46.654Z,101241.03
2018-05-29T20:09:15.107Z,101233.81
2018-05-29T20:11:43.489Z,101243.27
2018-05-29T20:14:11.846Z,101233.48
2018-05-29T20:16:41.082Z,101232.91
2018-05-29T20:19:09.399Z,101234.63
2018-05-29T20:21:37.761Z,101237.20
2018-05-29T20:24:06.641Z,101238.31
2018-05-29T20:26:34.961Z,101237.05
2018-05-29T20:29:03.252Z,101236.56
2018-05-29T20:31:32.270Z,101235.41
2018-05-29T20:34:00.573Z,101235.91
2018-05-29T20:36:28.901Z,101246.67
2018-05-29T20:38:57.251Z,101245.13
2018-05-29T20:41:25.582Z,101244.19
2018-05-29T20:43:53.960Z,101248.62
2018-05-29T20:46:24.045Z,101241.75
2018-05-29T20:48:52.474Z,101233.00
2018-05-29T20:51:20.955Z,101245.67
2018-05-29T20:53:49.350Z,101242.36
2018-05-29T20:56:17.905Z,101243.56
2018-05-29T20:58:46.387Z,101244.08
2018-05-29T21:01:14.839Z,101244.44
2018-05-29T21:03:43.280Z,101239.06
2018-05-29T21:06:11.627Z,101238.48
2018-05-29T21:08:40.765Z,101237.14
2018-05-29T21:11:09.070Z,101239.42
2018-05-29T21:13:37.398Z,101237.80
2018-05-29T21:16:06.457Z,101235.61
2018-05-29T21:18:34.807Z,101229.30
2018-05-29T21:21:03.156Z,101233.41
2018-05-29T21:23:31.702Z,101233.36
2018-05-29T21:26:00.039Z,101231.41
2018-05-29T21:28:28.347Z,101232.09
2018-05-29T21:30:56.686Z,101237.27
2018-05-29T21:33:25.019Z,101241.44
2018-05-29T21:35:53.373Z,101248.14
2018-05-29T21:38:21.750Z,101248.03
2018-05-29T21:40:50.167Z,101243.53
2018-05-29T21:43:18.565Z,101243.44
2018-05-29T21:45:47.073Z,101243.19
2018-05-29T21:48:15.690Z,101237.98
2018-05-29T21:50:44.358Z,101231.84
2018-05-29T21:53:13.197Z,101234.70
2018-05-29T21:55:41.571Z,101225.98
2018-05-29T21:58:09.890Z,101223.22
2018-05-29T22:00:38.829Z,101223.81
2018-05-29T22:03:07.216Z,101234.42
2018-05-29T22:05:35.554Z,101224.08
2018-05-29T22:08:04.387Z,101226.28
2018-05-29T22:10:32.708Z,101228.41
2018-05-29T22:13:01.029Z,101222.51
2018-05-29T22:15:29.405Z,101224.92
2018-05-29T22:17:57.712Z,101223.98
2018-05-29T22:20:26.130Z,101225.84
2018-05-29T22:22:54.961Z,101224.19
2018-05-29T22:25:23.449Z,101215.55
2018-05-29T22:27:51.881Z,101213.20
2018-05-29T22:30:20.296Z,101216.00
2018-05-29T22:32:48.592Z,101214.97
2018-05-29T22:35:17.067Z,101207.47
2018-05-29T22:37:45.837Z,101203.56
2018-05-29T22:40:14.298Z,101211.53
2018-05-29T22:42:42.670Z,101209.02
2018-05-29T22:45:11.520Z,101213.27
2018-05-29T22:47:39.839Z,101222.48
2018-05-29T22:50:08.148Z,101221.94
2018-05-29T22:52:36.591Z,101220.88
2018-05-29T22:55:04.989Z,101215.38
2018-05-29T22:57:33.363Z,101214.26
2018-05-29T23:00:01.777Z,101214.80
2018-05-29T23:02:30.069Z,101209.72
2018-05-29T23:04:58.400Z,101220.70
2018-05-29T23:07:27.664Z,101219.44
2018-05-29T23:09:55.997Z,101223.13
2018-05-29T23:12:24.317Z,101215.47
2018-05-29T23:14:53.480Z,101222.09
2018-05-29T23:17:22.561Z,101218.93
2018-05-29T23:19:51.697Z,101218.95
2018-05-29T23:22:20.276Z,101216.15
2018-05-29T23:24:48.635Z,101220.75
2018-05-29T23:27:17.035Z,101223.68
2018-05-29T23:29:46.501Z,101225.89
2018-05-29T23:32:15.296Z,101225.36
2018-05-29T23:34:43.705Z,101224.69
2018-05-29T23:37:12.059Z,101219.87
2018-05-29T23:39:40.391Z,101222.41
2018-05-29T23:42:08.702Z,101222.73
2018-05-29T23:44:37.045Z,101228.05
2018-05-29T23:47:05.362Z,101227.31
2018-05-29T23:49:33.680Z,101221.64
2018-05-29T23:52:02.004Z,101222.20
2018-05-29T23:54:30.376Z,101223.22
2018-05-29T23:56:58.681Z,101229.96
2018-05-29T23:59:28.187Z,101230.34
